sensor_id;sensor_type;location;lat;lon;timestamp;temperature;humidity
9542;DHT22;4809;48.224;8.572;2023-06-01T00:02:14;13.60;70.20
9542;DHT22;4809;48.224;8.572;2023-06-01T00:04:40;13.60;69.90
9542;DHT22;4809;48.224;8.572;2023-06-01T00:07:10;13.60;69.60
9542;DHT22;4809;48.224;8.572;2023-06-01T00:09:36;13.60;69.70
9542;DHT22;4809;48.224;8.572;2023-06-01T00:12:02;13.60;70.00
9542;DHT22;4809;48.224;8.572;2023-06-01T00:14:29;13.50;69.80
9542;DHT22;4809;48.224;8.572;2023-06-01T00:16:54;13.50;70.30
9542;DHT22;4809;48.224;8.572;2023-06-01T00:19:22;13.40;70.60
9542;DHT22;4809;48.224;8.572;2023-06-01T00:21:50;13.30;70.90
9542;DHT22;4809;48.224;8.572;2023-06-01T00:24:16;13.30;71.00
9542;DHT22;4809;48.224;8.572;2023-06-01T00:26:41;13.30;71.00
9542;DHT22;4809;48.224;8.572;2023-06-01T00:29:07;13.20;71.20
9542;DHT22;4809;48.224;8.572;2023-06-01T00:31:32;13.10;71.20
9542;DHT22;4809;48.224;8.572;2023-06-01T00:33:58;13.10;72.00
9542;DHT22;4809;48.224;8.572;2023-06-01T00:36:24;13.00;72.70
9542;DHT22;4809;48.224;8.572;2023-06-01T00:38:49;12.90;72.60
9542;DHT22;4809;48.224;8.572;2023-06-01T00:41:15;12.90;72.60
9542;DHT22;4809;48.224;8.572;2023-06-01T00:43:41;12.90;72.10
9542;DHT22;4809;48.224;8.572;2023-06-01T00:46:07;13.00;72.00
9542;DHT22;4809;48.224;8.572;2023-06-01T00:48:34;12.90;72.10
9542;DHT22;4809;48.224;8.572;2023-06-01T00:51:00;12.80;72.90
9542;DHT22;4809;48.224;8.572;2023-06-01T00:53:26;12.80;73.00
9542;DHT22;4809;48.224;8.572;2023-06-01T00:55:52;12.80;73.30
9542;DHT22;4809;48.224;8.572;2023-06-01T00:58:18;12.80;73.00
9542;DHT22;4809;48.224;8.572;2023-06-01T01:00:44;12.80;73.30
9542;DHT22;4809;48.224;8.572;2023-06-01T01:03:09;12.70;73.50
9542;DHT22;4809;48.224;8.572;2023-06-01T01:05:40;12.70;73.60
9542;DHT22;4809;48.224;8.572;2023-06-01T01:08:24;12.60;73.90
9542;DHT22;4809;48.224;8.572;2023-06-01T01:11:07;12.60;73.70
9542;DHT22;4809;48.224;8.572;2023-06-01T01:14:05;12.70;73.80
9542;DHT22;4809;48.224;8.572;2023-06-01T01:17:02;12.70;73.40
9542;DHT22;4809;48.224;8.572;2023-06-01T01:30:22;12.40;75.00
9542;DHT22;4809;48.224;8.572;2023-06-01T01:32:49;12.40;75.30
9542;DHT22;4809;48.224;8.572;2023-06-01T01:35:17;12.40;75.10
9542;DHT22;4809;48.224;8.572;2023-06-01T01:37:50;12.40;74.90
9542;DHT22;4809;48.224;8.572;2023-06-01T01:40:17;12.40;75.20
9542;DHT22;4809;48.224;8.572;2023-06-01T01:42:42;12.40;75.60
9542;DHT22;4809;48.224;8.572;2023-06-01T01:45:08;12.40;75.70
9542;DHT22;4809;48.224;8.572;2023-06-01T01:50:10;12.40;75.90
9542;DHT22;4809;48.224;8.572;2023-06-01T01:52:38;12.40;75.60
9542;DHT22;4809;48.224;8.572;2023-06-01T01:55:08;12.40;75.00
9542;DHT22;4809;48.224;8.572;2023-06-01T01:57:35;12.50;75.00
9542;DHT22;4809;48.224;8.572;2023-06-01T02:00:03;12.50;75.20
9542;DHT22;4809;48.224;8.572;2023-06-01T02:02:29;12.50;75.70
9542;DHT22;4809;48.224;8.572;2023-06-01T02:04:56;12.40;76.00
9542;DHT22;4809;48.224;8.572;2023-06-01T02:07:21;12.30;76.40
9542;DHT22;4809;48.224;8.572;2023-06-01T02:09:47;12.30;76.70
9542;DHT22;4809;48.224;8.572;2023-06-01T02:12:13;12.20;76.90
9542;DHT22;4809;48.224;8.572;2023-06-01T02:14:38;12.20;77.20
9542;DHT22;4809;48.224;8.572;2023-06-01T02:17:05;12.30;77.10
9542;DHT22;4809;48.224;8.572;2023-06-01T02:19:31;12.20;76.40
9542;DHT22;4809;48.224;8.572;2023-06-01T02:21:57;12.20;77.10
9542;DHT22;4809;48.224;8.572;2023-06-01T02:24:23;12.30;76.50
9542;DHT22;4809;48.224;8.572;2023-06-01T02:26:48;12.30;76.60
9542;DHT22;4809;48.224;8.572;2023-06-01T02:29:18;12.30;76.70
9542;DHT22;4809;48.224;8.572;2023-06-01T02:31:47;12.30;76.80
9542;DHT22;4809;48.224;8.572;2023-06-01T02:34:13;12.30;76.80
9542;DHT22;4809;48.224;8.572;2023-06-01T02:36:38;12.30;76.80
9542;DHT22;4809;48.224;8.572;2023-06-01T02:39:04;12.40;76.70
9542;DHT22;4809;48.224;8.572;2023-06-01T02:41:30;12.40;76.40
9542;DHT22;4809;48.224;8.572;2023-06-01T02:43:55;12.40;76.70
9542;DHT22;4809;48.224;8.572;2023-06-01T02:46:21;12.30;77.10
9542;DHT22;4809;48.224;8.572;2023-06-01T02:48:46;12.30;77.30
9542;DHT22;4809;48.224;8.572;2023-06-01T02:51:12;12.30;77.40
9542;DHT22;4809;48.224;8.572;2023-06-01T02:53:41;12.20;77.80
9542;DHT22;4809;48.224;8.572;2023-06-01T02:56:08;12.20;78.20
9542;DHT22;4809;48.224;8.572;2023-06-01T02:58:33;12.10;78.80
9542;DHT22;4809;48.224;8.572;2023-06-01T03:00:59;11.90;80.10
9542;DHT22;4809;48.224;8.572;2023-06-01T03:03:26;11.80;80.20
9542;DHT22;4809;48.224;8.572;2023-06-01T03:05:52;11.70;80.70
9542;DHT22;4809;48.224;8.572;2023-06-01T03:08:18;11.70;81.30
9542;DHT22;4809;48.224;8.572;2023-06-01T03:10:44;11.70;81.20
9542;DHT22;4809;48.224;8.572;2023-06-01T03:13:10;11.70;81.60
9542;DHT22;4809;48.224;8.572;2023-06-01T03:15:36;11.60;81.80
9542;DHT22;4809;48.224;8.572;2023-06-01T03:18:03;11.50;82.50
9542;DHT22;4809;48.224;8.572;2023-06-01T03:20:29;11.60;82.30
9542;DHT22;4809;48.224;8.572;2023-06-01T03:22:55;11.50;83.00
9542;DHT22;4809;48.224;8.572;2023-06-01T03:25:20;11.50;83.30
9542;DHT22;4809;48.224;8.572;2023-06-01T03:27:46;11.40;84.40
9542;DHT22;4809;48.224;8.572;2023-06-01T03:30:12;11.30;84.00
9542;DHT22;4809;48.224;8.572;2023-06-01T03:32:39;11.30;84.50
9542;DHT22;4809;48.224;8.572;2023-06-01T03:35:05;11.30;84.80
9542;DHT22;4809;48.224;8.572;2023-06-01T03:37:42;11.30;84.50
9542;DHT22;4809;48.224;8.572;2023-06-01T03:40:08;11.40;84.70
9542;DHT22;4809;48.224;8.572;2023-06-01T03:42:41;11.30;84.90
9542;DHT22;4809;48.224;8.572;2023-06-01T03:45:08;11.40;84.90
9542;DHT22;4809;48.224;8.572;2023-06-01T03:47:34;11.40;84.50
9542;DHT22;4809;48.224;8.572;2023-06-01T03:50:01;11.50;84.20
9542;DHT22;4809;48.224;8.572;2023-06-01T03:52:28;11.50;84.40
9542;DHT22;4809;48.224;8.572;2023-06-01T03:54:55;11.60;84.10
9542;DHT22;4809;48.224;8.572;2023-06-01T03:57:21;11.60;83.80
9542;DHT22;4809;48.224;8.572;2023-06-01T03:59:47;11.60;84.10
9542;DHT22;4809;48.224;8.572;2023-06-01T04:02:13;11.60;84.40
9542;DHT22;4809;48.224;8.572;2023-06-01T04:04:39;11.60;84.40
9542;DHT22;4809;48.224;8.572;2023-06-01T04:07:11;11.60;85.00
9542;DHT22;4809;48.224;8.572;2023-06-01T04:09:43;11.60;85.40
9542;DHT22;4809;48.224;8.572;2023-06-01T04:12:09;11.60;86.00
9542;DHT22;4809;48.224;8.572;2023-06-01T04:14:36;11.70;85.30
9542;DHT22;4809;48.224;8.572;2023-06-01T04:17:02;11.70;85.50
9542;DHT22;4809;48.224;8.572;2023-06-01T04:19:28;11.70;86.50
9542;DHT22;4809;48.224;8.572;2023-06-01T04:21:54;11.70;86.90
9542;DHT22;4809;48.224;8.572;2023-06-01T04:24:21;11.60;87.30
9542;DHT22;4809;48.224;8.572;2023-06-01T04:26:46;11.60;88.00
9542;DHT22;4809;48.224;8.572;2023-06-01T04:29:12;11.60;88.60
9542;DHT22;4809;48.224;8.572;2023-06-01T04:31:38;11.70;88.40
9542;DHT22;4809;48.224;8.572;2023-06-01T04:34:04;11.80;88.90
9542;DHT22;4809;48.224;8.572;2023-06-01T04:36:32;11.90;88.40
9542;DHT22;4809;48.224;8.572;2023-06-01T04:38:58;12.00;88.50
9542;DHT22;4809;48.224;8.572;2023-06-01T04:41:24;12.10;88.60
9542;DHT22;4809;48.224;8.572;2023-06-01T04:43:53;12.10;88.60
9542;DHT22;4809;48.224;8.572;2023-06-01T04:46:23;12.20;88.10
9542;DHT22;4809;48.224;8.572;2023-06-01T04:48:51;12.40;88.00
9542;DHT22;4809;48.224;8.572;2023-06-01T04:51:17;12.40;88.40
9542;DHT22;4809;48.224;8.572;2023-06-01T04:53:47;12.50;87.80
9542;DHT22;4809;48.224;8.572;2023-06-01T04:56:21;12.60;88.20
9542;DHT22;4809;48.224;8.572;2023-06-01T04:58:54;12.80;88.00
9542;DHT22;4809;48.224;8.572;2023-06-01T05:01:24;12.90;87.70
9542;DHT22;4809;48.224;8.572;2023-06-01T05:03:54;13.10;87.10
9542;DHT22;4809;48.224;8.572;2023-06-01T05:06:21;13.30;86.70
9542;DHT22;4809;48.224;8.572;2023-06-01T05:08:47;13.50;85.80
9542;DHT22;4809;48.224;8.572;2023-06-01T05:11:13;13.60;85.10
9542;DHT22;4809;48.224;8.572;2023-06-01T05:13:40;13.80;84.70
9542;DHT22;4809;48.224;8.572;2023-06-01T05:16:07;13.90;84.80
9542;DHT22;4809;48.224;8.572;2023-06-01T05:18:34;14.00;84.90
9542;DHT22;4809;48.224;8.572;2023-06-01T05:20:59;14.20;85.30
9542;DHT22;4809;48.224;8.572;2023-06-01T05:23:26;14.30;85.60
9542;DHT22;4809;48.224;8.572;2023-06-01T05:25:53;14.50;84.20
9542;DHT22;4809;48.224;8.572;2023-06-01T05:28:25;14.60;83.40
9542;DHT22;4809;48.224;8.572;2023-06-01T05:30:50;14.80;82.60
9542;DHT22;4809;48.224;8.572;2023-06-01T05:33:16;15.00;82.90
9542;DHT22;4809;48.224;8.572;2023-06-01T05:35:42;15.20;79.70
9542;DHT22;4809;48.224;8.572;2023-06-01T05:38:07;15.30;78.80
9542;DHT22;4809;48.224;8.572;2023-06-01T05:40:33;15.40;78.80
9542;DHT22;4809;48.224;8.572;2023-06-01T05:42:58;15.60;79.00
9542;DHT22;4809;48.224;8.572;2023-06-01T05:45:24;15.70;78.30
9542;DHT22;4809;48.224;8.572;2023-06-01T05:47:50;15.90;78.00
9542;DHT22;4809;48.224;8.572;2023-06-01T05:50:15;15.90;77.00
9542;DHT22;4809;48.224;8.572;2023-06-01T05:52:41;16.10;76.20
9542;DHT22;4809;48.224;8.572;2023-06-01T05:55:08;16.20;75.90
9542;DHT22;4809;48.224;8.572;2023-06-01T05:57:33;16.40;75.70
9542;DHT22;4809;48.224;8.572;2023-06-01T05:59:59;16.50;74.20
9542;DHT22;4809;48.224;8.572;2023-06-01T06:02:25;16.60;73.40
9542;DHT22;4809;48.224;8.572;2023-06-01T06:04:51;16.60;72.50
9542;DHT22;4809;48.224;8.572;2023-06-01T06:07:16;16.80;73.20
9542;DHT22;4809;48.224;8.572;2023-06-01T06:09:42;16.90;72.80
9542;DHT22;4809;48.224;8.572;2023-06-01T06:12:08;17.00;74.30
9542;DHT22;4809;48.224;8.572;2023-06-01T06:14:33;17.20;74.20
9542;DHT22;4809;48.224;8.572;2023-06-01T06:16:59;17.30;73.50
9542;DHT22;4809;48.224;8.572;2023-06-01T06:19:25;17.30;72.10
9542;DHT22;4809;48.224;8.572;2023-06-01T06:21:51;17.40;70.80
9542;DHT22;4809;48.224;8.572;2023-06-01T06:24:17;17.50;70.40
9542;DHT22;4809;48.224;8.572;2023-06-01T06:26:42;17.60;69.10
9542;DHT22;4809;48.224;8.572;2023-06-01T06:29:08;17.80;70.10
9542;DHT22;4809;48.224;8.572;2023-06-01T06:31:34;17.90;67.90
9542;DHT22;4809;48.224;8.572;2023-06-01T06:34:00;18.10;69.90
9542;DHT22;4809;48.224;8.572;2023-06-01T06:36:26;18.10;68.70
9542;DHT22;4809;48.224;8.572;2023-06-01T06:38:51;18.30;68.00
9542;DHT22;4809;48.224;8.572;2023-06-01T06:41:17;18.30;66.90
9542;DHT22;4809;48.224;8.572;2023-06-01T06:43:43;18.40;67.00
9542;DHT22;4809;48.224;8.572;2023-06-01T06:46:08;18.50;68.40
9542;DHT22;4809;48.224;8.572;2023-06-01T06:48:34;18.60;67.80
9542;DHT22;4809;48.224;8.572;2023-06-01T06:51:01;18.80;67.60
9542;DHT22;4809;48.224;8.572;2023-06-01T06:53:27;19.00;69.20
9542;DHT22;4809;48.224;8.572;2023-06-01T06:55:53;19.20;68.20
9542;DHT22;4809;48.224;8.572;2023-06-01T06:58:18;19.30;68.80
9542;DHT22;4809;48.224;8.572;2023-06-01T07:00:44;19.40;69.20
9542;DHT22;4809;48.224;8.572;2023-06-01T07:03:10;19.60;67.90
9542;DHT22;4809;48.224;8.572;2023-06-01T07:05:36;19.70;66.30
9542;DHT22;4809;48.224;8.572;2023-06-01T07:08:01;19.80;69.60
9542;DHT22;4809;48.224;8.572;2023-06-01T07:10:27;20.00;69.10
9542;DHT22;4809;48.224;8.572;2023-06-01T07:12:53;20.10;68.00
9542;DHT22;4809;48.224;8.572;2023-06-01T07:15:18;20.30;67.00
9542;DHT22;4809;48.224;8.572;2023-06-01T07:17:44;20.40;67.40
9542;DHT22;4809;48.224;8.572;2023-06-01T07:20:10;20.60;66.80
9542;DHT22;4809;48.224;8.572;2023-06-01T07:22:39;20.80;68.90
9542;DHT22;4809;48.224;8.572;2023-06-01T07:25:05;21.00;67.20
9542;DHT22;4809;48.224;8.572;2023-06-01T07:27:31;21.20;67.10
9542;DHT22;4809;48.224;8.572;2023-06-01T07:30:02;21.30;65.70
9542;DHT22;4809;48.224;8.572;2023-06-01T07:32:27;21.40;64.40
9542;DHT22;4809;48.224;8.572;2023-06-01T07:34:53;21.40;63.70
9542;DHT22;4809;48.224;8.572;2023-06-01T07:37:19;21.40;64.20
9542;DHT22;4809;48.224;8.572;2023-06-01T07:39:48;21.40;63.80
9542;DHT22;4809;48.224;8.572;2023-06-01T07:42:14;21.30;63.70
9542;DHT22;4809;48.224;8.572;2023-06-01T07:44:40;21.30;63.80
9542;DHT22;4809;48.224;8.572;2023-06-01T07:47:06;21.40;63.20
9542;DHT22;4809;48.224;8.572;2023-06-01T07:49:32;21.50;62.20
9542;DHT22;4809;48.224;8.572;2023-06-01T07:52:01;21.60;63.10
9542;DHT22;4809;48.224;8.572;2023-06-01T07:54:27;21.70;62.10
9542;DHT22;4809;48.224;8.572;2023-06-01T07:56:52;21.80;62.30
9542;DHT22;4809;48.224;8.572;2023-06-01T07:59:19;22.00;63.10
9542;DHT22;4809;48.224;8.572;2023-06-01T08:01:48;22.10;63.40
9542;DHT22;4809;48.224;8.572;2023-06-01T08:04:14;22.30;64.10
9542;DHT22;4809;48.224;8.572;2023-06-01T08:06:39;22.40;63.00
9542;DHT22;4809;48.224;8.572;2023-06-01T08:09:07;22.40;61.00
9542;DHT22;4809;48.224;8.572;2023-06-01T08:11:33;22.60;63.30
9542;DHT22;4809;48.224;8.572;2023-06-01T08:13:59;22.80;62.50
9542;DHT22;4809;48.224;8.572;2023-06-01T08:16:29;22.90;61.20
9542;DHT22;4809;48.224;8.572;2023-06-01T08:18:56;23.10;60.50
9542;DHT22;4809;48.224;8.572;2023-06-01T08:21:23;23.30;62.30
9542;DHT22;4809;48.224;8.572;2023-06-01T08:23:51;23.40;63.10
9542;DHT22;4809;48.224;8.572;2023-06-01T08:26:19;23.60;63.80
9542;DHT22;4809;48.224;8.572;2023-06-01T08:28:44;23.70;60.50
9542;DHT22;4809;48.224;8.572;2023-06-01T08:31:18;23.70;60.30
9542;DHT22;4809;48.224;8.572;2023-06-01T08:33:44;23.90;59.70
9542;DHT22;4809;48.224;8.572;2023-06-01T08:36:10;23.90;60.80
9542;DHT22;4809;48.224;8.572;2023-06-01T08:38:37;24.10;60.20
9542;DHT22;4809;48.224;8.572;2023-06-01T08:41:14;24.20;60.10
9542;DHT22;4809;48.224;8.572;2023-06-01T08:43:45;24.10;59.90
9542;DHT22;4809;48.224;8.572;2023-06-01T08:46:16;24.10;58.70
9542;DHT22;4809;48.224;8.572;2023-06-01T08:48:43;24.20;59.80
9542;DHT22;4809;48.224;8.572;2023-06-01T08:51:09;24.20;59.10
9542;DHT22;4809;48.224;8.572;2023-06-01T08:53:36;24.30;59.40
9542;DHT22;4809;48.224;8.572;2023-06-01T08:56:04;24.50;58.80
9542;DHT22;4809;48.224;8.572;2023-06-01T08:58:30;24.40;58.10
9542;DHT22;4809;48.224;8.572;2023-06-01T09:00:56;24.70;58.50
9542;DHT22;4809;48.224;8.572;2023-06-01T09:03:23;24.90;60.60
9542;DHT22;4809;48.224;8.572;2023-06-01T09:05:49;25.20;58.70
9542;DHT22;4809;48.224;8.572;2023-06-01T09:08:15;25.30;57.90
9542;DHT22;4809;48.224;8.572;2023-06-01T09:10:41;25.40;57.60
9542;DHT22;4809;48.224;8.572;2023-06-01T09:13:07;25.40;56.60
9542;DHT22;4809;48.224;8.572;2023-06-01T09:15:33;25.40;55.60
9542;DHT22;4809;48.224;8.572;2023-06-01T09:18:07;25.60;55.90
9542;DHT22;4809;48.224;8.572;2023-06-01T09:20:33;25.70;56.90
9542;DHT22;4809;48.224;8.572;2023-06-01T09:22:58;25.90;54.80
9542;DHT22;4809;48.224;8.572;2023-06-01T09:25:29;26.10;55.40
9542;DHT22;4809;48.224;8.572;2023-06-01T09:27:58;26.30;54.00
9542;DHT22;4809;48.224;8.572;2023-06-01T09:30:36;26.60;52.90
9542;DHT22;4809;48.224;8.572;2023-06-01T09:33:16;26.70;51.80
9542;DHT22;4809;48.224;8.572;2023-06-01T09:35:47;26.60;49.50
9542;DHT22;4809;48.224;8.572;2023-06-01T09:38:24;26.60;50.30
9542;DHT22;4809;48.224;8.572;2023-06-01T09:41:02;26.60;52.90
9542;DHT22;4809;48.224;8.572;2023-06-01T09:43:28;26.70;48.20
9542;DHT22;4809;48.224;8.572;2023-06-01T09:46:20;26.60;49.70
9542;DHT22;4809;48.224;8.572;2023-06-01T09:48:47;26.60;46.50
9542;DHT22;4809;48.224;8.572;2023-06-01T09:51:22;26.60;49.70
9542;DHT22;4809;48.224;8.572;2023-06-01T09:53:48;26.70;49.10
9542;DHT22;4809;48.224;8.572;2023-06-01T09:56:14;26.90;50.70
9542;DHT22;4809;48.224;8.572;2023-06-01T09:58:40;27.20;47.80
9542;DHT22;4809;48.224;8.572;2023-06-01T10:01:07;27.20;46.20
9542;DHT22;4809;48.224;8.572;2023-06-01T10:03:35;27.40;47.20
9542;DHT22;4809;48.224;8.572;2023-06-01T10:06:02;27.50;50.50
9542;DHT22;4809;48.224;8.572;2023-06-01T10:08:29;27.70;48.30
9542;DHT22;4809;48.224;8.572;2023-06-01T10:10:56;27.80;47.90
9542;DHT22;4809;48.224;8.572;2023-06-01T10:13:22;28.00;47.80
9542;DHT22;4809;48.224;8.572;2023-06-01T10:15:53;28.00;45.90
9542;DHT22;4809;48.224;8.572;2023-06-01T10:18:20;27.90;46.80
9542;DHT22;4809;48.224;8.572;2023-06-01T10:20:46;27.80;46.70
9542;DHT22;4809;48.224;8.572;2023-06-01T10:23:12;27.80;46.50
9542;DHT22;4809;48.224;8.572;2023-06-01T10:25:46;27.80;46.80
9542;DHT22;4809;48.224;8.572;2023-06-01T10:28:13;27.70;47.00
9542;DHT22;4809;48.224;8.572;2023-06-01T10:30:40;27.60;47.10
9542;DHT22;4809;48.224;8.572;2023-06-01T10:33:08;27.80;47.70
9542;DHT22;4809;48.224;8.572;2023-06-01T10:40:43;28.20;45.90
9542;DHT22;4809;48.224;8.572;2023-06-01T10:46:36;28.10;49.40
9542;DHT22;4809;48.224;8.572;2023-06-01T10:49:02;28.30;44.70
9542;DHT22;4809;48.224;8.572;2023-06-01T10:51:29;28.30;47.70
9542;DHT22;4809;48.224;8.572;2023-06-01T10:53:54;28.50;46.10
9542;DHT22;4809;48.224;8.572;2023-06-01T10:56:40;28.60;45.40
9542;DHT22;4809;48.224;8.572;2023-06-01T10:59:09;28.80;46.20
9542;DHT22;4809;48.224;8.572;2023-06-01T11:01:43;28.80;45.80
9542;DHT22;4809;48.224;8.572;2023-06-01T11:04:09;28.90;44.70
9542;DHT22;4809;48.224;8.572;2023-06-01T11:06:37;28.90;46.10
9542;DHT22;4809;48.224;8.572;2023-06-01T11:09:06;28.80;45.30
9542;DHT22;4809;48.224;8.572;2023-06-01T11:14:25;29.20;45.00
9542;DHT22;4809;48.224;8.572;2023-06-01T11:16:52;29.30;45.60
9542;DHT22;4809;48.224;8.572;2023-06-01T11:19:25;29.40;45.10
9542;DHT22;4809;48.224;8.572;2023-06-01T11:22:10;29.50;44.50
9542;DHT22;4809;48.224;8.572;2023-06-01T11:24:38;29.70;43.70
9542;DHT22;4809;48.224;8.572;2023-06-01T11:27:09;29.70;44.00
9542;DHT22;4809;48.224;8.572;2023-06-01T11:29:35;30.00;46.60
9542;DHT22;4809;48.224;8.572;2023-06-01T11:32:03;30.00;44.60
9542;DHT22;4809;48.224;8.572;2023-06-01T11:34:39;30.10;48.10
9542;DHT22;4809;48.224;8.572;2023-06-01T11:37:13;30.20;42.70
9542;DHT22;4809;48.224;8.572;2023-06-01T11:39:40;30.40;44.00
9542;DHT22;4809;48.224;8.572;2023-06-01T11:42:11;30.40;44.70
9542;DHT22;4809;48.224;8.572;2023-06-01T11:44:39;30.60;45.50
9542;DHT22;4809;48.224;8.572;2023-06-01T11:47:06;30.70;42.10
9542;DHT22;4809;48.224;8.572;2023-06-01T11:49:51;30.60;43.40
9542;DHT22;4809;48.224;8.572;2023-06-01T11:52:17;30.60;43.70
9542;DHT22;4809;48.224;8.572;2023-06-01T11:54:43;30.40;44.70
9542;DHT22;4809;48.224;8.572;2023-06-01T11:57:09;30.30;39.30
9542;DHT22;4809;48.224;8.572;2023-06-01T11:59:40;30.30;43.70
9542;DHT22;4809;48.224;8.572;2023-06-01T12:02:26;30.40;41.40
9542;DHT22;4809;48.224;8.572;2023-06-01T12:05:06;30.50;44.00
9542;DHT22;4809;48.224;8.572;2023-06-01T12:07:44;30.70;41.70
9542;DHT22;4809;48.224;8.572;2023-06-01T12:10:15;30.70;42.50
9542;DHT22;4809;48.224;8.572;2023-06-01T12:12:43;30.80;43.20
9542;DHT22;4809;48.224;8.572;2023-06-01T12:15:10;30.90;42.70
9542;DHT22;4809;48.224;8.572;2023-06-01T12:17:53;31.10;43.20
9542;DHT22;4809;48.224;8.572;2023-06-01T12:20:45;31.10;43.40
9542;DHT22;4809;48.224;8.572;2023-06-01T12:23:14;31.30;41.30
9542;DHT22;4809;48.224;8.572;2023-06-01T12:25:57;31.10;39.40
9542;DHT22;4809;48.224;8.572;2023-06-01T12:28:25;30.90;40.30
9542;DHT22;4809;48.224;8.572;2023-06-01T12:31:14;30.90;38.90
9542;DHT22;4809;48.224;8.572;2023-06-01T12:33:41;30.60;40.80
9542;DHT22;4809;48.224;8.572;2023-06-01T12:36:08;30.30;37.40
9542;DHT22;4809;48.224;8.572;2023-06-01T12:38:51;30.20;42.20
9542;DHT22;4809;48.224;8.572;2023-06-01T12:41:17;30.60;41.30
9542;DHT22;4809;48.224;8.572;2023-06-01T12:43:50;30.90;42.60
9542;DHT22;4809;48.224;8.572;2023-06-01T12:46:26;31.50;41.90
9542;DHT22;4809;48.224;8.572;2023-06-01T12:48:54;31.60;42.50
9542;DHT22;4809;48.224;8.572;2023-06-01T12:51:35;31.90;40.90
9542;DHT22;4809;48.224;8.572;2023-06-01T12:54:02;31.90;41.50
9542;DHT22;4809;48.224;8.572;2023-06-01T12:56:28;32.00;40.20
9542;DHT22;4809;48.224;8.572;2023-06-01T12:58:54;32.20;40.80
9542;DHT22;4809;48.224;8.572;2023-06-01T13:01:19;32.20;38.60
9542;DHT22;4809;48.224;8.572;2023-06-01T13:03:45;32.10;38.60
9542;DHT22;4809;48.224;8.572;2023-06-01T13:06:11;32.10;40.00
9542;DHT22;4809;48.224;8.572;2023-06-01T13:08:40;32.30;39.40
9542;DHT22;4809;48.224;8.572;2023-06-01T13:11:06;32.10;40.90
9542;DHT22;4809;48.224;8.572;2023-06-01T13:13:31;32.10;40.30
9542;DHT22;4809;48.224;8.572;2023-06-01T13:15:57;32.20;39.80
9542;DHT22;4809;48.224;8.572;2023-06-01T13:18:23;31.90;40.40
9542;DHT22;4809;48.224;8.572;2023-06-01T13:20:48;31.90;39.30
9542;DHT22;4809;48.224;8.572;2023-06-01T13:23:17;32.00;39.70
9542;DHT22;4809;48.224;8.572;2023-06-01T13:25:43;31.90;41.00
9542;DHT22;4809;48.224;8.572;2023-06-01T13:28:09;32.20;41.20
9542;DHT22;4809;48.224;8.572;2023-06-01T13:30:35;32.30;37.40
9542;DHT22;4809;48.224;8.572;2023-06-01T13:33:01;32.50;38.60
9542;DHT22;4809;48.224;8.572;2023-06-01T13:35:27;32.70;35.90
9542;DHT22;4809;48.224;8.572;2023-06-01T13:37:53;32.60;38.00
9542;DHT22;4809;48.224;8.572;2023-06-01T13:40:18;32.60;37.10
9542;DHT22;4809;48.224;8.572;2023-06-01T13:42:48;32.60;38.60
9542;DHT22;4809;48.224;8.572;2023-06-01T13:45:14;32.80;39.10
9542;DHT22;4809;48.224;8.572;2023-06-01T13:47:40;32.90;39.40
9542;DHT22;4809;48.224;8.572;2023-06-01T13:50:06;33.00;38.10
9542;DHT22;4809;48.224;8.572;2023-06-01T13:52:33;33.10;36.00
9542;DHT22;4809;48.224;8.572;2023-06-01T13:54:59;33.40;36.70
9542;DHT22;4809;48.224;8.572;2023-06-01T13:57:24;33.40;37.10
9542;DHT22;4809;48.224;8.572;2023-06-01T13:59:50;33.60;37.50
9542;DHT22;4809;48.224;8.572;2023-06-01T14:02:16;33.50;36.40
9542;DHT22;4809;48.224;8.572;2023-06-01T14:04:41;33.10;35.90
9542;DHT22;4809;48.224;8.572;2023-06-01T14:07:07;32.80;37.60
9542;DHT22;4809;48.224;8.572;2023-06-01T14:09:33;32.70;36.10
9542;DHT22;4809;48.224;8.572;2023-06-01T14:11:59;32.50;35.30
9542;DHT22;4809;48.224;8.572;2023-06-01T14:14:24;32.50;37.80
9542;DHT22;4809;48.224;8.572;2023-06-01T14:16:50;32.70;38.00
9542;DHT22;4809;48.224;8.572;2023-06-01T14:19:16;32.80;38.90
9542;DHT22;4809;48.224;8.572;2023-06-01T14:21:41;32.70;37.40
9542;DHT22;4809;48.224;8.572;2023-06-01T14:24:07;32.80;35.90
9542;DHT22;4809;48.224;8.572;2023-06-01T14:26:33;32.90;36.30
9542;DHT22;4809;48.224;8.572;2023-06-01T14:28:59;33.00;37.60
9542;DHT22;4809;48.224;8.572;2023-06-01T14:31:25;33.10;36.30
9542;DHT22;4809;48.224;8.572;2023-06-01T14:33:50;32.70;33.90
9542;DHT22;4809;48.224;8.572;2023-06-01T14:36:16;32.40;36.90
9542;DHT22;4809;48.224;8.572;2023-06-01T14:38:42;32.50;37.80
9542;DHT22;4809;48.224;8.572;2023-06-01T14:41:08;32.70;37.90
9542;DHT22;4809;48.224;8.572;2023-06-01T14:43:33;32.80;36.00
9542;DHT22;4809;48.224;8.572;2023-06-01T14:45:59;32.80;37.20
9542;DHT22;4809;48.224;8.572;2023-06-01T14:48:25;32.70;35.20
9542;DHT22;4809;48.224;8.572;2023-06-01T14:50:51;32.80;35.60
9542;DHT22;4809;48.224;8.572;2023-06-01T14:53:17;32.70;36.60
9542;DHT22;4809;48.224;8.572;2023-06-01T14:55:43;32.70;36.80
9542;DHT22;4809;48.224;8.572;2023-06-01T14:58:09;32.70;36.20
9542;DHT22;4809;48.224;8.572;2023-06-01T15:00:36;32.70;36.40
9542;DHT22;4809;48.224;8.572;2023-06-01T15:03:02;32.80;37.10
9542;DHT22;4809;48.224;8.572;2023-06-01T15:05:28;32.60;35.80
9542;DHT22;4809;48.224;8.572;2023-06-01T15:07:54;32.50;35.80
9542;DHT22;4809;48.224;8.572;2023-06-01T15:10:20;32.60;36.30
9542;DHT22;4809;48.224;8.572;2023-06-01T15:12:46;32.70;35.40
9542;DHT22;4809;48.224;8.572;2023-06-01T15:15:11;32.70;36.10
9542;DHT22;4809;48.224;8.572;2023-06-01T15:17:38;32.80;34.30
9542;DHT22;4809;48.224;8.572;2023-06-01T15:20:05;32.70;35.20
9542;DHT22;4809;48.224;8.572;2023-06-01T15:22:31;32.70;34.70
9542;DHT22;4809;48.224;8.572;2023-06-01T15:24:57;32.40;35.70
9542;DHT22;4809;48.224;8.572;2023-06-01T15:27:23;32.30;35.40
9542;DHT22;4809;48.224;8.572;2023-06-01T15:29:49;32.20;36.10
9542;DHT22;4809;48.224;8.572;2023-06-01T15:32:15;32.30;35.70
9542;DHT22;4809;48.224;8.572;2023-06-01T15:34:40;32.30;35.60
9542;DHT22;4809;48.224;8.572;2023-06-01T15:37:11;32.30;35.90
9542;DHT22;4809;48.224;8.572;2023-06-01T15:39:38;32.30;36.40
9542;DHT22;4809;48.224;8.572;2023-06-01T15:42:05;32.20;35.40
9542;DHT22;4809;48.224;8.572;2023-06-01T15:44:32;32.10;35.00
9542;DHT22;4809;48.224;8.572;2023-06-01T15:46:57;32.00;34.90
9542;DHT22;4809;48.224;8.572;2023-06-01T15:49:23;32.00;35.40
9542;DHT22;4809;48.224;8.572;2023-06-01T15:51:49;32.10;34.70
9542;DHT22;4809;48.224;8.572;2023-06-01T15:54:15;32.10;34.50
9542;DHT22;4809;48.224;8.572;2023-06-01T15:56:42;32.00;36.00
9542;DHT22;4809;48.224;8.572;2023-06-01T15:59:08;31.90;36.30
9542;DHT22;4809;48.224;8.572;2023-06-01T16:01:34;31.80;35.60
9542;DHT22;4809;48.224;8.572;2023-06-01T16:04:00;31.70;35.60
9542;DHT22;4809;48.224;8.572;2023-06-01T16:06:26;31.60;36.50
9542;DHT22;4809;48.224;8.572;2023-06-01T16:08:51;31.50;35.80
9542;DHT22;4809;48.224;8.572;2023-06-01T16:11:17;31.40;33.90
9542;DHT22;4809;48.224;8.572;2023-06-01T16:13:43;31.30;37.20
9542;DHT22;4809;48.224;8.572;2023-06-01T16:16:09;31.20;36.40
9542;DHT22;4809;48.224;8.572;2023-06-01T16:18:35;31.00;36.60
9542;DHT22;4809;48.224;8.572;2023-06-01T16:21:00;30.80;37.70
9542;DHT22;4809;48.224;8.572;2023-06-01T16:23:26;30.50;36.50
9542;DHT22;4809;48.224;8.572;2023-06-01T16:25:52;30.40;37.60
9542;DHT22;4809;48.224;8.572;2023-06-01T16:28:17;30.20;37.40
9542;DHT22;4809;48.224;8.572;2023-06-01T16:30:43;30.10;37.00